createdAt,value
2023-04-09T00:00:14.092Z,102845.72
2023-04-09T00:02:41.233Z,102852.50
2023-04-09T00:05:08.572Z,102854.03
2023-04-09T00:07:35.254Z,102852.09
2023-04-09T00:10:01.943Z,102844.22
2023-04-09T00:12:30.373Z,102851.16
2023-04-09T00:14:57.800Z,102848.53
2023-04-09T00:17:24.655Z,102842.38
2023-04-09T00:19:51.549Z,102837.94
2023-04-09T00:22:18.296Z,102838.78
2023-04-09T00:24:45.095Z,102834.44
2023-04-09T00:27:11.782Z,102836.09
2023-04-09T00:29:38.467Z,102830.88
2023-04-09T00:32:05.828Z,102830.97
2023-04-09T00:34:32.656Z,102828.34
2023-04-09T00:36:59.326Z,102825.78
2023-04-09T00:39:26.350Z,102832.81
2023-04-09T00:42:02.442Z,102826.81
2023-04-09T00:44:29.209Z,102826.81
2023-04-09T00:46:56.227Z,102826.88
2023-04-09T00:49:24.898Z,102824.34
2023-04-09T00:51:51.823Z,102820.97
2023-04-09T00:54:19.156Z,102811.50
2023-04-09T00:56:46.198Z,102821.22
2023-04-09T00:59:13.199Z,102816.81
2023-04-09T01:01:39.900Z,102820.09
2023-04-09T01:04:07.058Z,102820.78
2023-04-09T01:06:52.826Z,102822.44
2023-04-09T01:09:39.273Z,102815.34
2023-04-09T01:12:31.781Z,102817.88
2023-04-09T01:15:09.945Z,102822.94
2023-04-09T01:18:01.578Z,102818.88
2023-04-09T01:20:51.549Z,102823.75
2023-04-09T01:23:29.563Z,102814.06
2023-04-09T01:26:05.169Z,102815.91
2023-04-09T01:28:37.076Z,102813.28
2023-04-09T01:31:13.799Z,102814.94
2023-04-09T01:33:42.299Z,102812.28
2023-04-09T01:36:09.759Z,102814.94
2023-04-09T01:38:39.797Z,102804.47
2023-04-09T01:41:07.811Z,102800.19
2023-04-09T01:43:35.111Z,102811.59
2023-04-09T01:46:03.630Z,102804.53
2023-04-09T01:48:32.953Z,102808.06
2023-04-09T01:50:59.972Z,102814.38
2023-04-09T01:53:31.147Z,102809.91
2023-04-09T01:56:01.676Z,102816.69
2023-04-09T01:58:28.479Z,102820.38
2023-04-09T02:01:14.637Z,102817.31
2023-04-09T02:03:47.417Z,102817.09
2023-04-09T02:06:17.728Z,102821.44
2023-04-09T02:08:47.544Z,102817.91
2023-04-09T02:11:16.090Z,102820.41
2023-04-09T02:13:44.250Z,102822.84
2023-04-09T02:16:13.898Z,102816.72
2023-04-09T02:18:40.599Z,102822.09
2023-04-09T02:21:07.372Z,102823.22
2023-04-09T02:23:35.073Z,102829.25
2023-04-09T02:26:01.839Z,102826.31
2023-04-09T02:28:28.605Z,102825.28
2023-04-09T02:30:55.311Z,102830.41
2023-04-09T02:33:22.530Z,102828.44
2023-04-09T02:35:49.255Z,102823.84
2023-04-09T02:38:16.140Z,102824.63
2023-04-09T02:40:43.373Z,102827.25
2023-04-09T02:43:10.616Z,102829.97
2023-04-09T02:45:37.657Z,102821.28
2023-04-09T02:48:04.569Z,102819.63
2023-04-09T02:50:31.288Z,102824.13
2023-04-09T02:52:58.199Z,102825.19
2023-04-09T02:55:24.911Z,102823.56
2023-04-09T02:57:51.715Z,102823.59
2023-04-09T03:00:18.361Z,102816.75
2023-04-09T03:02:45.151Z,102817.69
2023-04-09T03:05:11.872Z,102818.63
2023-04-09T03:07:38.559Z,102814.25
2023-04-09T03:10:05.719Z,102815.13
2023-04-09T03:12:32.423Z,102815.97
2023-04-09T03:14:59.156Z,102816.75
2023-04-09T03:17:27.335Z,102818.50
2023-04-09T03:19:54.153Z,102813.34
2023-04-09T03:22:20.925Z,102809.88
2023-04-09T03:24:47.601Z,102822.22
2023-04-09T03:27:14.439Z,102818.78
2023-04-09T03:29:41.132Z,102814.47
2023-04-09T03:32:07.794Z,102819.03
2023-04-09T03:34:34.488Z,102819.16
2023-04-09T03:37:01.230Z,102823.75
2023-04-09T03:39:30.910Z,102817.84
2023-04-09T03:41:59.046Z,102824.94
2023-04-09T03:44:25.784Z,102822.44
2023-04-09T03:46:52.712Z,102821.69
2023-04-09T03:49:19.565Z,102817.38
2023-04-09T03:51:46.315Z,102818.41
2023-04-09T03:54:13.130Z,102821.13
2023-04-09T03:56:39.820Z,102817.72
2023-04-09T03:59:06.700Z,102823.97
2023-04-09T04:01:33.549Z,102828.44
2023-04-09T04:04:00.751Z,102836.41
2023-04-09T04:06:27.876Z,102827.81
2023-04-09T04:08:54.780Z,102828.88
2023-04-09T04:11:21.701Z,102829.00
2023-04-09T04:13:48.360Z,102831.72
2023-04-09T04:16:15.058Z,102828.34
2023-04-09T04:18:41.706Z,102831.91
2023-04-09T04:21:16.101Z,102832.69
2023-04-09T04:23:42.866Z,102831.03
2023-04-09T04:26:11.040Z,102832.75
2023-04-09T04:28:40.862Z,102829.22
2023-04-09T04:31:09.854Z,102831.81
2023-04-09T04:33:37.397Z,102830.22
2023-04-09T04:36:08.520Z,102832.09
2023-04-09T04:38:36.101Z,102833.97
2023-04-09T04:41:03.692Z,102834.06
2023-04-09T04:43:30.607Z,102835.91
2023-04-09T04:45:57.353Z,102829.91
2023-04-09T04:48:24.781Z,102844.78
2023-04-09T04:50:59.472Z,102841.44
2023-04-09T04:53:26.332Z,102841.53
2023-04-09T04:55:53.494Z,102839.94
2023-04-09T04:58:20.213Z,102834.78
2023-04-09T05:00:47.269Z,102834.88
2023-04-09T05:03:14.476Z,102842.75
2023-04-09T05:05:41.284Z,102849.81
2023-04-09T05:08:08.061Z,102840.19
2023-04-09T05:10:34.777Z,102843.72
2023-04-09T05:13:01.474Z,102845.53
2023-04-09T05:15:28.172Z,102845.53
2023-04-09T05:17:54.965Z,102835.88
2023-04-09T05:20:21.856Z,102843.81
2023-04-09T05:22:48.579Z,102845.69
2023-04-09T05:25:16.487Z,102849.34
2023-04-09T05:27:43.388Z,102838.09
2023-04-09T05:30:10.415Z,102844.38
2023-04-09T05:32:37.407Z,102848.94
2023-04-09T05:35:04.702Z,102843.88
2023-04-09T05:37:31.412Z,102848.44
2023-04-09T05:39:58.090Z,102839.78
2023-04-09T05:42:24.739Z,102841.63
2023-04-09T05:44:51.385Z,102843.28
2023-04-09T05:47:18.000Z,102842.53
2023-04-09T05:49:44.658Z,102844.38
2023-04-09T05:52:11.409Z,102842.78
2023-04-09T05:54:38.152Z,102849.16
2023-04-09T05:57:04.836Z,102847.59
2023-04-09T05:59:31.485Z,102845.94
2023-04-09T06:01:58.218Z,102843.44
2023-04-09T06:04:25.125Z,102842.75
2023-04-09T06:06:51.846Z,102844.59
2023-04-09T06:09:18.501Z,102846.44
2023-04-09T06:11:45.359Z,102843.91
2023-04-09T06:14:16.477Z,102839.63
2023-04-09T06:16:43.181Z,102834.53
2023-04-09T06:19:09.942Z,102843.50
2023-04-09T06:21:36.588Z,102849.75
2023-04-09T06:24:03.307Z,102842.81
2023-04-09T06:26:29.978Z,102850.78
2023-04-09T06:28:56.665Z,102843.84
2023-04-09T06:31:23.357Z,102844.81
2023-04-09T06:33:50.213Z,102855.41
2023-04-09T06:36:17.422Z,102855.47
2023-04-09T06:38:44.051Z,102848.53
2023-04-09T06:41:12.827Z,102851.25
2023-04-09T06:43:39.592Z,102851.31
2023-04-09T06:46:06.490Z,102849.66
2023-04-09T06:48:33.360Z,102852.34
2023-04-09T06:51:00.985Z,102850.72
2023-04-09T06:53:27.649Z,102856.03
2023-04-09T06:55:56.551Z,102856.22
2023-04-09T06:58:23.741Z,102846.75
2023-04-09T07:00:50.400Z,102852.19
2023-04-09T07:03:17.324Z,102858.50
2023-04-09T07:05:44.082Z,102859.56
2023-04-09T07:08:11.754Z,102855.31
2023-04-09T07:10:38.568Z,102853.72
2023-04-09T07:13:05.478Z,102853.03
2023-04-09T07:15:32.208Z,102854.09
2023-04-09T07:17:58.933Z,102860.41
2023-04-09T07:20:25.615Z,102856.16
2023-04-09T07:22:52.552Z,102858.09
2023-04-09T07:25:19.465Z,102858.28
2023-04-09T07:27:46.193Z,102854.81
2023-04-09T07:30:12.904Z,102853.13
2023-04-09T07:32:39.936Z,102853.28
2023-04-09T07:35:08.087Z,102846.44
2023-04-09T07:37:34.747Z,102851.03
2023-04-09T07:40:04.065Z,102850.31
2023-04-09T07:42:31.018Z,102847.81
2023-04-09T07:44:57.720Z,102848.84
2023-04-09T07:47:24.793Z,102852.50
2023-04-09T07:49:51.456Z,102845.59
2023-04-09T07:52:18.257Z,102848.38
2023-04-09T07:54:44.916Z,102850.28
2023-04-09T07:57:11.578Z,102846.03
2023-04-09T07:59:38.268Z,102852.34
2023-04-09T08:02:05.120Z,102856.03
2023-04-09T08:04:32.083Z,102843.88
2023-04-09T08:06:58.860Z,102844.94
2023-04-09T08:09:25.535Z,102846.88
2023-04-09T08:11:52.276Z,102851.44
2023-04-09T08:14:19.153Z,102835.72
2023-04-09T08:16:47.740Z,102836.72
2023-04-09T08:19:16.440Z,102829.72
2023-04-09T08:21:43.741Z,102843.09
2023-04-09T08:24:11.991Z,102838.75
2023-04-09T08:26:42.805Z,102835.25
2023-04-09T08:29:12.363Z,102839.72
2023-04-09T08:31:39.495Z,102822.94
2023-04-09T08:34:06.258Z,102830.03
2023-04-09T08:36:34.810Z,102830.06
2023-04-09T08:39:02.513Z,102831.84
2023-04-09T08:41:29.819Z,102833.59
2023-04-09T08:43:59.269Z,102832.72
2023-04-09T08:46:27.422Z,102832.72
2023-04-09T08:48:54.785Z,102830.97
2023-04-09T08:51:24.444Z,102828.34
2023-04-09T08:54:04.347Z,102822.16
2023-04-09T08:56:32.175Z,102830.03
2023-04-09T08:58:58.964Z,102826.44
2023-04-09T09:01:31.676Z,102819.22
2023-04-09T09:04:00.877Z,102825.16
2023-04-09T09:06:32.709Z,102816.84
2023-04-09T09:09:06.691Z,102815.63
2023-04-09T09:11:35.590Z,102810.00
2023-04-09T09:14:07.310Z,102818.38
2023-04-09T09:16:45.024Z,102807.34
2023-04-09T09:19:26.851Z,102808.75
2023-04-09T09:21:57.706Z,102801.06
2023-04-09T09:24:24.499Z,102800.25
2023-04-09T09:26:52.296Z,102791.34
2023-04-09T09:29:20.169Z,102798.69
2023-04-09T09:31:54.382Z,102793.56
2023-04-09T09:34:22.944Z,102792.22
2023-04-09T09:36:49.971Z,102792.09
2023-04-09T09:39:17.899Z,102784.47
2023-04-09T09:41:46.048Z,102797.13
2023-04-09T09:44:30.221Z,102796.75
2023-04-09T09:46:58.804Z,102790.28
2023-04-09T09:49:25.452Z,102789.84
2023-04-09T09:51:56.848Z,102784.94
2023-04-09T09:54:26.319Z,102779.94
2023-04-09T09:57:02.196Z,102781.03
2023-04-09T09:59:34.512Z,102784.88
2023-04-09T10:02:06.128Z,102786.88
2023-04-09T10:04:36.803Z,102782.69
2023-04-09T10:07:07.386Z,102782.78
2023-04-09T10:09:43.373Z,102774.03
2023-04-09T10:12:12.001Z,102778.50
2023-04-09T10:14:40.391Z,102786.31
2023-04-09T10:17:07.729Z,102780.13
2023-04-09T10:19:41.640Z,102770.31
2023-04-09T10:22:14.870Z,102769.34
2023-04-09T10:24:42.165Z,102765.78
2023-04-09T10:27:17.640Z,102769.22
2023-04-09T10:29:49.101Z,102764.56
2023-04-09T10:32:28.483Z,102759.06
2023-04-09T10:35:01.752Z,102759.88
2023-04-09T10:37:28.909Z,102747.41
2023-04-09T10:39:56.655Z,102751.25
2023-04-09T10:42:30.401Z,102753.22
2023-04-09T10:45:08.844Z,102749.72
2023-04-09T10:47:37.555Z,102749.72
2023-04-09T10:50:29.362Z,102753.78
2023-04-09T10:52:58.360Z,102755.31
2023-04-09T10:55:38.033Z,102763.38
2023-04-09T10:58:06.179Z,102758.28
2023-04-09T11:00:38.226Z,102762.03
2023-04-09T11:03:22.952Z,102758.63
2023-04-09T11:06:10.604Z,102762.38
2023-04-09T11:08:38.920Z,102756.53
2023-04-09T11:11:06.065Z,102760.53
2023-04-09T11:13:33.212Z,102755.56
2023-04-09T11:16:01.560Z,102753.72
2023-04-09T11:18:30.502Z,102753.47
2023-04-09T11:20:59.237Z,102754.97
2023-04-09T11:23:26.442Z,102755.59
2023-04-09T11:25:54.334Z,102756.06
2023-04-09T11:28:21.338Z,102759.31
2023-04-09T11:30:51.260Z,102746.56
2023-04-09T11:33:20.039Z,102756.19
2023-04-09T11:35:47.586Z,102751.72
2023-04-09T11:38:14.311Z,102757.94
2023-04-09T11:40:48.737Z,102747.38
2023-04-09T11:43:16.813Z,102752.03
2023-04-09T11:45:44.377Z,102758.44
2023-04-09T11:48:12.275Z,102753.31
2023-04-09T11:50:39.141Z,102753.41
2023-04-09T11:53:19.467Z,102752.00
2023-04-09T11:55:49.653Z,102739.94
2023-04-09T11:58:18.467Z,102748.84
2023-04-09T12:00:45.768Z,102744.19
2023-04-09T12:03:12.682Z,102743.91
2023-04-09T12:05:42.126Z,102741.91
2023-04-09T12:08:10.531Z,102739.88
2023-04-09T12:10:38.681Z,102746.81
2023-04-09T12:13:13.656Z,102739.56
2023-04-09T12:15:43.501Z,102740.19
2023-04-09T12:18:12.172Z,102736.19
2023-04-09T12:20:46.647Z,102740.16
2023-04-09T12:23:13.650Z,102739.69
2023-04-09T12:25:42.338Z,102739.34
2023-04-09T12:28:11.178Z,102738.09
2023-04-09T12:30:38.092Z,102743.16
2023-04-09T12:33:05.757Z,102735.00
2023-04-09T12:35:33.189Z,102737.75
2023-04-09T12:37:59.909Z,102738.06
2023-04-09T12:40:26.939Z,102737.25
2023-04-09T12:42:54.232Z,102728.25
2023-04-09T12:45:21.499Z,102725.31
2023-04-09T12:47:48.243Z,102717.09
2023-04-09T12:50:16.325Z,102717.75
2023-04-09T12:52:44.364Z,102721.88
2023-04-09T12:55:12.036Z,102723.63
2023-04-09T12:57:39.783Z,102720.97
2023-04-09T13:00:07.876Z,102723.50
2023-04-09T13:02:35.654Z,102723.50
2023-04-09T13:05:02.900Z,102723.34
2023-04-09T13:07:29.619Z,102715.97
2023-04-09T13:09:57.254Z,102720.81
2023-04-09T13:12:24.540Z,102716.19
2023-04-09T13:14:54.970Z,102720.66
2023-04-09T13:17:22.522Z,102721.72
2023-04-09T13:19:50.562Z,102720.63
2023-04-09T13:22:18.579Z,102716.09
2023-04-09T13:24:45.309Z,102720.50
2023-04-09T13:27:12.137Z,102716.97
2023-04-09T13:29:38.996Z,102711.53
2023-04-09T13:32:07.655Z,102712.63
2023-04-09T13:34:35.412Z,102707.28
2023-04-09T13:37:03.494Z,102714.41
2023-04-09T13:39:30.495Z,102721.66
2023-04-09T13:41:57.286Z,102711.38
2023-04-09T13:44:25.435Z,102715.25
2023-04-09T13:46:52.504Z,102711.19
2023-04-09T13:49:19.335Z,102720.31
2023-04-09T13:51:46.641Z,102709.84
2023-04-09T13:54:13.423Z,102702.97
2023-04-09T13:56:40.543Z,102707.53
2023-04-09T13:59:07.215Z,102706.72
2023-04-09T14:01:34.753Z,102700.53
2023-04-09T14:04:02.071Z,102689.84
2023-04-09T14:06:28.924Z,102701.09
2023-04-09T14:08:55.925Z,102704.50
2023-04-09T14:11:22.817Z,102693.31
2023-04-09T14:13:49.799Z,102698.59
2023-04-09T14:16:16.581Z,102699.38
2023-04-09T14:18:43.325Z,102688.53
2023-04-09T14:21:10.488Z,102684.91
2023-04-09T14:23:39.093Z,102685.69
2023-04-09T14:26:06.645Z,102685.53
2023-04-09T14:28:33.377Z,102693.38
2023-04-09T14:31:00.265Z,102686.88
2023-04-09T14:33:27.365Z,102687.75
2023-04-09T14:35:54.082Z,102685.91
2023-04-09T14:38:20.811Z,102683.75
2023-04-09T14:40:47.543Z,102679.16
2023-04-09T14:43:14.241Z,102691.06
2023-04-09T14:45:41.122Z,102691.31
2023-04-09T14:48:08.158Z,102680.94
2023-04-09T14:50:36.298Z,102678.88
2023-04-09T14:53:04.378Z,102675.63
2023-04-09T14:55:31.218Z,102676.22
2023-04-09T14:57:59.330Z,102680.50
2023-04-09T15:00:26.124Z,102690.22
2023-04-09T15:02:53.106Z,102688.69
2023-04-09T15:05:20.063Z,102676.88
2023-04-09T15:07:46.904Z,102685.13
2023-04-09T15:10:13.926Z,102686.13
2023-04-09T15:12:40.824Z,102679.47
2023-04-09T15:15:08.973Z,102679.22
2023-04-09T15:17:36.573Z,102668.63
2023-04-09T15:20:04.209Z,102684.81
2023-04-09T15:22:30.990Z,102681.16
2023-04-09T15:24:57.693Z,102677.47
2023-04-09T15:27:24.560Z,102671.34
2023-04-09T15:29:51.911Z,102676.09
2023-04-09T15:32:21.402Z,102673.22
2023-04-09T15:34:48.101Z,102678.41
2023-04-09T15:37:14.756Z,102677.09
2023-04-09T15:39:41.449Z,102678.31
2023-04-09T15:42:10.278Z,102679.44
2023-04-09T15:44:39.104Z,102680.44
2023-04-09T15:47:05.856Z,102678.72
2023-04-09T15:49:35.017Z,102678.56
2023-04-09T15:52:01.778Z,102681.88
2023-04-09T15:54:28.436Z,102688.72
2023-04-09T15:56:55.108Z,102682.25
2023-04-09T15:59:21.792Z,102680.19
2023-04-09T16:01:49.213Z,102683.53
2023-04-09T16:04:16.194Z,102677.22
2023-04-09T16:06:42.864Z,102681.44
2023-04-09T16:09:09.545Z,102682.25
2023-04-09T16:11:37.494Z,102685.78
2023-04-09T16:14:04.269Z,102682.25
2023-04-09T16:16:30.970Z,102685.88
2023-04-09T16:18:57.670Z,102693.00
2023-04-09T16:21:24.431Z,102696.59
2023-04-09T16:23:51.722Z,102687.78
2023-04-09T16:26:18.508Z,102684.19
2023-04-09T16:28:45.229Z,102691.16
2023-04-09T16:31:11.895Z,102684.97
2023-04-09T16:33:38.753Z,102688.53
2023-04-09T16:36:05.778Z,102691.25
2023-04-09T16:38:32.610Z,102691.31
2023-04-09T16:40:59.282Z,102696.81
2023-04-09T16:43:26.223Z,102689.97
2023-04-09T16:45:53.244Z,102697.19
2023-04-09T16:48:20.056Z,102703.50
2023-04-09T16:50:46.697Z,102706.41
2023-04-09T16:53:13.459Z,102703.16
2023-04-09T16:55:40.151Z,102703.34
2023-04-09T16:58:06.881Z,102706.16
2023-04-09T17:00:35.361Z,102709.03
2023-04-09T17:03:02.398Z,102708.38
2023-04-09T17:05:29.551Z,102708.53
2023-04-09T17:07:56.303Z,102713.91
2023-04-09T17:10:22.957Z,102721.97
2023-04-09T17:12:50.713Z,102724.75
2023-04-09T17:15:17.854Z,102722.22
2023-04-09T17:17:45.998Z,102716.13
2023-04-09T17:20:13.100Z,102718.84
2023-04-09T17:22:40.063Z,102718.03
2023-04-09T17:25:07.270Z,102725.19
2023-04-09T17:27:34.021Z,102720.81
2023-04-09T17:30:02.669Z,102723.50
2023-04-09T17:32:29.465Z,102723.53
2023-04-09T17:34:56.193Z,102729.78
2023-04-09T17:37:22.874Z,102726.31
2023-04-09T17:39:49.613Z,102731.69
2023-04-09T17:42:16.467Z,102729.94
2023-04-09T17:44:43.900Z,102733.53
2023-04-09T17:47:11.659Z,102733.53
2023-04-09T17:49:39.280Z,102732.69
2023-04-09T17:52:06.263Z,102742.44
2023-04-09T17:54:38.084Z,102730.97
2023-04-09T17:57:07.270Z,102729.22
2023-04-09T17:59:34.728Z,102738.97
2023-04-09T18:02:02.477Z,102738.09
2023-04-09T18:04:29.509Z,102746.97
2023-04-09T18:06:56.638Z,102749.66
2023-04-09T18:09:23.305Z,102745.25
2023-04-09T18:11:54.888Z,102745.25
2023-04-09T18:14:22.066Z,102746.16
2023-04-09T18:16:49.222Z,102752.38
2023-04-09T18:19:16.001Z,102747.97
2023-04-09T18:21:42.686Z,102740.00
2023-04-09T18:24:09.406Z,102753.25
2023-04-09T18:26:36.743Z,102749.75
2023-04-09T18:29:03.610Z,102755.91
2023-04-09T18:31:30.473Z,102755.91
2023-04-09T18:33:57.279Z,102760.34
2023-04-09T18:36:24.513Z,102755.03
2023-04-09T18:38:52.230Z,102758.53
2023-04-09T18:41:26.178Z,102761.19
2023-04-09T18:43:53.576Z,102760.31
2023-04-09T18:46:20.325Z,102760.31
2023-04-09T18:48:47.198Z,102765.63
2023-04-09T18:51:14.611Z,102762.97
2023-04-09T18:53:42.231Z,102758.50
2023-04-09T18:56:09.348Z,102770.84
2023-04-09T18:58:36.487Z,102771.72
2023-04-09T19:01:12.757Z,102767.28
2023-04-09T19:03:40.400Z,102767.22
2023-04-09T19:06:15.195Z,102768.91
2023-04-09T19:08:41.991Z,102763.56
2023-04-09T19:11:08.743Z,102763.53
2023-04-09T19:13:36.947Z,102768.78
2023-04-09T19:16:04.448Z,102763.50
2023-04-09T19:18:32.165Z,102767.88
2023-04-09T19:20:58.897Z,102774.91
2023-04-09T19:23:27.025Z,102773.09
2023-04-09T19:25:55.369Z,102771.31
2023-04-09T19:28:23.063Z,102773.94
2023-04-09T19:30:53.705Z,102772.13
2023-04-09T19:33:25.839Z,102769.47
2023-04-09T19:35:54.536Z,102780.03
2023-04-09T19:38:21.730Z,102773.84
2023-04-09T19:40:48.478Z,102768.53
2023-04-09T19:43:15.637Z,102772.88
2023-04-09T19:45:45.002Z,102773.72
2023-04-09T19:48:12.908Z,102777.16
2023-04-09T19:50:41.183Z,102779.66
2023-04-09T19:53:07.972Z,102784.91
2023-04-09T19:55:35.276Z,102783.13
2023-04-09T19:58:03.180Z,102781.34
2023-04-09T20:00:29.917Z,102785.69
2023-04-09T20:02:57.554Z,102785.59
2023-04-09T20:05:24.712Z,102780.25
2023-04-09T20:07:52.873Z,102784.63
2023-04-09T20:10:19.757Z,102781.06
2023-04-09T20:12:50.717Z,102780.13
2023-04-09T20:15:20.184Z,102785.31
2023-04-09T20:17:50.954Z,102782.69
2023-04-09T20:20:20.921Z,102786.13
2023-04-09T20:22:56.373Z,102781.69
2023-04-09T20:25:24.726Z,102776.38
2023-04-09T20:27:55.985Z,102784.19
2023-04-09T20:30:22.770Z,102783.13
2023-04-09T20:32:49.725Z,102780.31
2023-04-09T20:35:16.798Z,102787.19
2023-04-09T20:37:44.177Z,102786.19
2023-04-09T20:40:13.847Z,102793.06
2023-04-09T20:42:41.374Z,102785.84
2023-04-09T20:45:09.307Z,102783.09
2023-04-09T20:47:36.430Z,102790.84
2023-04-09T20:50:03.379Z,102783.72
2023-04-09T20:52:30.496Z,102798.53
2023-04-09T20:54:57.663Z,102789.66
2023-04-09T20:57:24.733Z,102778.19
2023-04-09T20:59:52.954Z,102787.81
2023-04-09T21:02:20.019Z,102790.41
2023-04-09T21:04:46.820Z,102787.72
2023-04-09T21:07:14.717Z,102786.84
2023-04-09T21:09:41.619Z,102789.38
2023-04-09T21:12:08.293Z,102794.50
2023-04-09T21:14:35.035Z,102780.16
2023-04-09T21:17:01.850Z,102788.69
2023-04-09T21:19:28.596Z,102783.28
2023-04-09T21:21:55.504Z,102782.34
2023-04-09T21:24:22.325Z,102784.03
2023-04-09T21:26:52.113Z,102782.34
2023-04-09T21:29:20.747Z,102780.47
2023-04-09T21:31:48.851Z,102776.81
2023-04-09T21:34:16.220Z,102781.91
2023-04-09T21:36:45.221Z,102776.50
2023-04-09T21:39:12.689Z,102779.94
2023-04-09T21:41:39.678Z,102785.13
2023-04-09T21:44:08.731Z,102781.72
2023-04-09T21:46:40.818Z,102774.88
2023-04-09T21:49:08.194Z,102775.84
2023-04-09T21:51:34.960Z,102781.06
2023-04-09T21:54:09.430Z,102778.44
2023-04-09T21:56:36.302Z,102773.88
2023-04-09T21:59:03.742Z,102771.22
2023-04-09T22:01:31.404Z,102779.13
2023-04-09T22:03:59.858Z,102778.31
2023-04-09T22:06:27.546Z,102773.88
2023-04-09T22:08:57.061Z,102778.16
2023-04-09T22:11:28.924Z,102779.72
2023-04-09T22:13:56.815Z,102775.09
2023-04-09T22:16:24.273Z,102774.00
2023-04-09T22:18:51.791Z,102773.72
2023-04-09T22:21:18.642Z,102777.88
2023-04-09T22:23:45.442Z,102775.09
2023-04-09T22:26:12.148Z,102775.97
2023-04-09T22:28:39.430Z,102779.63
2023-04-09T22:31:06.634Z,102782.41
2023-04-09T22:33:33.384Z,102779.69
2023-04-09T22:36:00.313Z,102779.53
2023-04-09T22:38:27.353Z,102777.84
2023-04-09T22:40:54.481Z,102773.47
2023-04-09T22:43:21.365Z,102771.69
2023-04-09T22:45:54.765Z,102775.09
2023-04-09T22:48:22.943Z,102773.91
2023-04-09T22:50:50.445Z,102780.72
2023-04-09T22:53:20.929Z,102777.06
2023-04-09T22:55:51.105Z,102780.66
2023-04-09T22:58:18.816Z,102771.91
2023-04-09T23:00:47.067Z,102782.38
2023-04-09T23:03:14.214Z,102780.50
2023-04-09T23:05:41.303Z,102779.63
2023-04-09T23:08:08.364Z,102777.97
2023-04-09T23:10:35.635Z,102781.53
2023-04-09T23:13:02.418Z,102774.56
2023-04-09T23:15:29.103Z,102775.41
2023-04-09T23:17:56.211Z,102773.47
2023-04-09T23:20:23.428Z,102776.81
2023-04-09T23:22:50.481Z,102781.06
2023-04-09T23:25:17.744Z,102780.09
2023-04-09T23:27:44.501Z,102784.38
2023-04-09T23:30:16.604Z,102774.75
2023-04-09T23:32:46.534Z,102784.28
2023-04-09T23:35:13.668Z,102786.72
2023-04-09T23:37:42.461Z,102786.53
2023-04-09T23:40:10.409Z,102779.47
2023-04-09T23:42:37.096Z,102782.69
2023-04-09T23:45:05.468Z,102784.16
2023-04-09T23:47:34.289Z,102779.31
2023-04-09T23:50:04.995Z,102785.00
2023-04-09T23:52:36.330Z,102790.13
2023-04-09T23:55:04.452Z,102789.13
2023-04-09T23:57:31.274Z,102790.00
2023-04-09T23:59:58.005Z,102786.44
